Time;durP1;ratioP1;P1;durP2;ratioP2;P2;SDS_P1;SDS_P2;PMS_P1;PMS_P2;Temp;Humidity;BMP_temperature;BMP_pressure;BME280_temperature;BME280_humidity;BME280_pressure;Samples;Min_cycle;Max_cycle;Signal;HPM_P1;HPM_P2
2022/12/10 00:00:54;;;;;;;0.30;0.30;;;3.20;99.10;;;;;;5075993;28;20444;-69
2022/12/10 00:03:20;;;;;;;1.43;1.33;;;3.20;99.10;;;;;;5075989;28;20166;-69
2022/12/10 00:05:45;;;;;;;0.70;0.70;;;3.10;99.20;;;;;;5075536;28;20409;-68
2022/12/10 00:08:11;;;;;;;2.20;1.13;;;3.10;99.30;;;;;;5075718;28;20319;-69
2022/12/10 00:10:40;;;;;;;0.60;0.60;;;3.00;99.50;;;;;;5075674;28;20176;-69
2022/12/10 00:13:05;;;;;;;2.78;1.30;;;3.00;99.60;;;;;;5075927;28;20205;-69
2022/12/10 00:15:34;;;;;;;1.97;0.73;;;3.20;99.60;;;;;;5075637;28;20258;-69
2022/12/10 00:18:00;;;;;;;0.60;0.60;;;3.20;99.60;;;;;;5075431;28;20192;-69
2022/12/10 00:20:26;;;;;;;0.50;0.50;;;3.20;99.40;;;;;;5075339;28;20250;-68
2022/12/10 00:22:51;;;;;;;0.30;0.30;;;3.20;99.30;;;;;;5075629;28;20193;-69
2022/12/10 00:25:17;;;;;;;0.40;0.40;;;3.20;99.30;;;;;;5075240;28;20207;-69
2022/12/10 00:27:42;;;;;;;0.30;0.30;;;3.20;99.30;;;;;;5075347;28;20217;-68
2022/12/10 00:30:09;;;;;;;0.30;0.30;;;3.10;99.20;;;;;;5075224;28;20193;-69
2022/12/10 00:32:35;;;;;;;1.80;1.80;;;3.00;99.30;;;;;;5075404;28;20176;-69
2022/12/10 00:35:01;;;;;;;0.52;0.52;;;2.90;99.40;;;;;;5074072;28;20536;-69
2022/12/10 00:37:26;;;;;;;1.23;0.87;;;2.90;99.60;;;;;;5075082;28;20205;-69
2022/12/10 00:39:52;;;;;;;3.97;2.20;;;2.90;99.80;;;;;;5075281;28;20172;-69
2022/12/10 00:42:18;;;;;;;2.00;1.90;;;3.10;99.90;;;;;;5075100;28;20244;-68
2022/12/10 00:44:43;;;;;;;1.33;1.27;;;3.10;99.80;;;;;;5074854;28;20256;-69
2022/12/10 00:47:09;;;;;;;1.60;1.50;;;3.20;99.60;;;;;;5074941;28;20185;-69
2022/12/10 00:49:34;;;;;;;0.50;0.50;;;3.40;99.60;;;;;;5074860;28;20219;-68
2022/12/10 00:52:00;;;;;;;2.87;2.77;;;3.20;99.40;;;;;;5075308;28;20179;-69
2022/12/10 00:54:26;;;;;;;0.90;0.90;;;3.30;99.40;;;;;;5074818;28;20169;-68
2022/12/10 00:56:51;;;;;;;1.00;1.00;;;2.90;99.90;;;;;;5074709;28;20169;-68
2022/12/10 00:59:17;;;;;;;0.40;0.40;;;3.30;99.50;;;;;;5074844;28;20692;-69
2022/12/10 01:01:43;;;;;;;0.40;0.40;;;3.30;99.20;;;;;;5074699;28;20697;-69
2022/12/10 01:04:13;;;;;;;0.65;0.65;;;3.40;99.00;;;;;;5074552;28;20169;-69
2022/12/10 01:06:48;;;;;;;0.30;0.30;;;3.30;99.90;;;;;;5074736;28;20172;-68
2022/12/10 01:09:16;;;;;;;2.05;1.95;;;3.20;99.20;;;;;;5074596;28;20630;-69
2022/12/10 01:11:44;;;;;;;1.65;1.58;;;3.30;99.40;;;;;;5074556;28;20186;-68
2022/12/10 01:14:13;;;;;;;1.55;0.95;;;3.30;99.30;;;;;;5074325;28;20173;-69
2022/12/10 01:16:39;;;;;;;1.90;1.77;;;2.90;99.90;;;;;;5074288;28;20170;-68
2022/12/10 01:19:05;;;;;;;0.30;0.30;;;3.30;99.20;;;;;;5074498;28;20184;-69
2022/12/10 01:21:31;;;;;;;0.40;0.40;;;3.30;99.10;;;;;;5074654;28;20201;-69
2022/12/10 01:23:58;;;;;;;0.30;0.30;;;3.30;99.00;;;;;;5074330;28;20212;-69
2022/12/10 01:26:26;;;;;;;0.40;0.40;;;3.20;99.00;;;;;;5074155;28;20392;-69
2022/12/10 01:28:54;;;;;;;0.63;0.60;;;3.10;99.10;;;;;;5072810;28;20200;-68
2022/12/10 01:31:23;;;;;;;5.03;1.40;;;3.10;99.30;;;;;;5074231;28;20228;-69
2022/12/10 01:33:49;;;;;;;0.50;0.50;;;3.10;99.50;;;;;;5074065;28;20634;-69
2022/12/10 01:36:18;;;;;;;0.70;0.70;;;3.20;99.60;;;;;;5073719;28;20185;-69
2022/12/10 01:38:45;;;;;;;0.50;0.50;;;3.30;99.60;;;;;;5074021;28;20201;-69
2022/12/10 01:41:21;;;;;;;0.70;0.70;;;3.30;99.50;;;;;;5074010;28;20193;-69
2022/12/10 01:44:00;;;;;;;4.28;1.02;;;3.30;99.40;;;;;;5073982;28;20181;-68
2022/12/10 01:46:34;;;;;;;0.93;0.93;;;3.40;99.30;;;;;;5073534;28;20296;-68
2022/12/10 01:49:03;;;;;;;0.30;0.30;;;3.40;98.80;;;;;;5073731;28;20281;-69
2022/12/10 01:51:31;;;;;;;6.00;2.90;;;3.40;98.80;;;;;;5073917;28;20539;-69
2022/12/10 01:53:57;;;;;;;0.52;0.52;;;3.50;99.10;;;;;;5073694;28;20215;-69
2022/12/10 01:56:24;;;;;;;0.40;0.40;;;3.40;99.10;;;;;;5073677;28;20184;-69
2022/12/10 01:58:56;;;;;;;0.30;0.30;;;3.30;99.10;;;;;;5073600;28;20589;-69
2022/12/10 02:01:50;;;;;;;0.50;0.50;;;3.30;99.10;;;;;;5073630;28;20193;-69
2022/12/10 02:04:22;;;;;;;0.30;0.30;;;3.40;98.90;;;;;;5073597;28;20292;-69
2022/12/10 02:06:58;;;;;;;0.82;0.75;;;3.40;99.90;;;;;;5073562;28;20161;-69
2022/12/10 02:09:38;;;;;;;0.30;0.30;;;3.30;99.10;;;;;;5073786;28;20154;-69
2022/12/10 02:12:17;;;;;;;0.40;0.40;;;3.30;99.20;;;;;;5073490;28;20226;-69
2022/12/10 02:15:21;;;;;;;0.30;0.30;;;3.30;99.20;;;;;;5073530;28;20177;-69
2022/12/10 02:17:57;;;;;;;0.95;0.95;;;3.20;99.20;;;;;;5071199;28;20249;-69
2022/12/10 02:20:29;;;;;;;1.52;0.68;;;3.20;99.40;;;;;;5073288;28;20191;-69
2022/12/10 02:22:57;;;;;;;0.30;0.30;;;3.20;99.30;;;;;;5073566;28;20260;-68
2022/12/10 02:25:36;;;;;;;1.02;1.02;;;3.30;99.30;;;;;;5071947;28;20173;-69
2022/12/10 02:28:08;;;;;;;0.40;0.40;;;3.10;99.30;;;;;;5072023;28;20200;-68
2022/12/10 02:30:36;;;;;;;1.05;1.05;;;3.20;99.90;;;;;;5073395;28;20248;-68
2022/12/10 02:33:05;;;;;;;0.80;0.80;;;3.20;99.70;;;;;;5073506;28;20193;-69
2022/12/10 02:35:32;;;;;;;1.13;1.02;;;3.20;99.60;;;;;;5073112;28;20166;-69
2022/12/10 02:38:25;;;;;;;0.60;0.60;;;3.30;99.60;;;;;;5073117;28;20285;-69
2022/12/10 02:40:59;;;;;;;0.32;0.32;;;3.30;99.20;;;;;;5072999;28;20582;-69
2022/12/10 02:43:27;;;;;;;0.40;0.40;;;3.20;99.10;;;;;;5073449;28;20173;-69
2022/12/10 02:45:54;;;;;;;0.70;0.70;;;3.20;99.40;;;;;;5073174;28;20182;-69
2022/12/10 02:48:20;;;;;;;0.57;0.57;;;3.30;99.70;;;;;;5073264;28;20201;-68
2022/12/10 02:50:45;;;;;;;0.38;0.38;;;3.20;99.50;;;;;;5073094;28;20574;-69
2022/12/10 02:53:11;;;;;;;0.67;0.60;;;3.30;99.50;;;;;;5073127;28;20234;-69
2022/12/10 02:56:10;;;;;;;0.40;0.40;;;3.30;99.50;;;;;;5073008;28;20174;-69
2022/12/10 02:58:50;;;;;;;1.42;1.33;;;3.30;99.40;;;;;;5076257;28;20419;-68
2022/12/10 03:01:34;;;;;;;1.75;1.73;;;3.30;99.50;;;;;;5077259;28;20296;-69
2022/12/10 03:04:22;;;;;;;1.27;1.05;;;3.30;99.60;;;;;;5077016;28;20522;-69
2022/12/10 03:06:54;;;;;;;2.60;2.50;;;3.40;99.90;;;;;;5076919;28;20259;-68
2022/12/10 03:09:22;;;;;;;6.53;1.95;;;3.30;99.30;;;;;;5076772;28;20168;-68
2022/12/10 03:11:52;;;;;;;0.70;0.70;;;3.40;99.10;;;;;;5076785;28;20252;-69
2022/12/10 03:14:25;;;;;;;2.20;2.08;;;3.30;99.00;;;;;;5076652;28;20181;-69
2022/12/10 03:16:57;;;;;;;1.08;1.05;;;3.20;99.90;;;;;;5076841;28;20170;-69
2022/12/10 03:19:53;;;;;;;0.30;0.30;;;3.30;99.00;;;;;;5076939;28;20523;-68
2022/12/10 03:22:20;;;;;;;2.33;2.22;;;3.30;99.10;;;;;;5076098;28;20209;-69
2022/12/10 03:24:47;;;;;;;0.30;0.30;;;3.40;99.00;;;;;;5076479;28;20511;-68
2022/12/10 03:27:15;;;;;;;0.30;0.30;;;3.40;98.80;;;;;;5076378;28;20204;-69
2022/12/10 03:30:01;;;;;;;1.38;1.38;;;3.30;98.90;;;;;;5075187;28;20176;-68
2022/12/10 03:32:29;;;;;;;0.57;0.57;;;3.20;99.10;;;;;;5076103;28;20658;-69
2022/12/10 03:34:57;;;;;;;0.60;0.60;;;3.30;99.20;;;;;;5076231;28;20166;-69
2022/12/10 03:37:25;;;;;;;1.85;1.75;;;3.30;99.30;;;;;;5076198;28;20615;-68
2022/12/10 03:39:51;;;;;;;1.10;0.85;;;3.20;99.20;;;;;;5076335;28;20523;-69
2022/12/10 03:42:16;;;;;;;0.70;0.70;;;3.10;99.00;;;;;;5076293;28;20201;-70
2022/12/10 03:44:43;;;;;;;2.23;1.67;;;3.00;99.00;;;;;;5076091;28;20171;-69
2022/12/10 03:47:13;;;;;;;0.80;0.80;;;3.10;99.20;;;;;;5076011;28;20182;-69
2022/12/10 03:49:40;;;;;;;0.55;0.55;;;3.10;99.20;;;;;;5076211;28;20158;-69
2022/12/10 03:52:05;;;;;;;0.57;0.57;;;3.20;99.20;;;;;;5076129;28;20258;-69
2022/12/10 03:54:31;;;;;;;0.30;0.30;;;3.20;99.20;;;;;;5075928;28;20287;-69
2022/12/10 03:56:57;;;;;;;0.60;0.60;;;3.20;99.90;;;;;;5076290;28;20619;-68
2022/12/10 03:59:22;;;;;;;0.40;0.40;;;3.20;99.30;;;;;;5076107;28;20191;-68
2022/12/10 04:01:48;;;;;;;0.70;0.70;;;3.20;99.20;;;;;;5075807;28;20201;-68
2022/12/10 04:04:14;;;;;;;0.40;0.40;;;3.20;99.10;;;;;;5075724;28;20516;-68
2022/12/10 04:06:41;;;;;;;2.20;2.00;;;3.20;98.70;;;;;;5075797;28;20631;-69
2022/12/10 04:09:10;;;;;;;0.30;0.30;;;3.20;99.00;;;;;;5074257;28;20412;-69
2022/12/10 04:11:36;;;;;;;1.30;0.65;;;3.30;99.00;;;;;;5075788;28;20184;-69
2022/12/10 04:16:45;;;;;;;0.70;0.70;;;3.20;99.90;;;;;;5075552;28;20188;-69
2022/12/10 04:19:15;;;;;;;0.40;0.40;;;3.10;98.90;;;;;;5075635;28;20174;-69
2022/12/10 04:27:20;;;;;;;0.50;0.50;;;3.20;99.00;;;;;;5075692;28;20541;-69
2022/12/10 04:29:46;;;;;;;1.00;0.95;;;3.20;99.00;;;;;;5075797;28;20232;-69
2022/12/10 04:32:12;;;;;;;1.63;1.53;;;3.20;98.90;;;;;;5075355;28;20248;-69
2022/12/10 04:34:38;;;;;;;6.85;3.28;;;3.20;99.00;;;;;;5075166;28;20783;-69
2022/12/10 04:37:05;;;;;;;2.10;2.00;;;3.30;99.10;;;;;;5074985;28;20205;-69
2022/12/10 04:39:31;;;;;;;1.02;1.02;;;3.30;98.70;;;;;;5075118;28;20411;-69
2022/12/10 04:41:57;;;;;;;1.05;1.05;;;3.20;98.40;;;;;;5075343;28;20716;-68
2022/12/10 04:44:23;;;;;;;0.30;0.30;;;3.20;98.60;;;;;;5074978;28;20201;-68
2022/12/10 04:46:49;;;;;;;0.30;0.30;;;3.00;99.90;;;;;;5074943;28;20810;-69
2022/12/10 04:49:15;;;;;;;0.50;0.50;;;3.10;98.70;;;;;;5074884;28;20177;-69
2022/12/10 04:51:41;;;;;;;0.57;0.57;;;3.20;99.00;;;;;;5074887;28;20218;-69
2022/12/10 04:54:07;;;;;;;0.60;0.60;;;3.20;99.00;;;;;;5074604;28;20169;-68
2022/12/10 04:56:33;;;;;;;0.40;0.40;;;3.20;99.00;;;;;;5074869;28;20238;-69
2022/12/10 04:58:59;;;;;;;0.40;0.40;;;3.30;99.00;;;;;;5074684;28;20280;-68
2022/12/10 05:01:26;;;;;;;0.70;0.70;;;3.10;98.80;;;;;;5074834;28;20587;-69
2022/12/10 05:03:52;;;;;;;0.85;0.82;;;3.20;99.00;;;;;;5074792;28;20165;-69
2022/12/10 05:06:19;;;;;;;4.45;1.35;;;3.10;99.20;;;;;;5074418;28;20247;-69
2022/12/10 05:08:45;;;;;;;2.67;2.45;;;3.00;99.20;;;;;;5074468;28;20193;-69
2022/12/10 05:11:13;;;;;;;2.13;2.03;;;3.10;99.10;;;;;;5074715;28;20244;-68
2022/12/10 05:13:40;;;;;;;0.63;0.60;;;3.00;98.90;;;;;;5074600;28;20530;-69
2022/12/10 05:16:07;;;;;;;0.52;0.52;;;3.00;98.80;;;;;;5074409;28;20649;-69
2022/12/10 05:18:34;;;;;;;1.23;1.17;;;3.00;98.80;;;;;;5075300;28;20185;-69
2022/12/10 05:21:01;;;;;;;0.50;0.50;;;3.00;98.80;;;;;;5073744;28;20210;-68
2022/12/10 05:23:29;;;;;;;0.40;0.40;;;2.90;98.70;;;;;;5074280;28;20203;-69
2022/12/10 05:26:12;;;;;;;0.40;0.40;;;2.80;98.50;;;;;;5074148;28;20181;-68
2022/12/10 05:28:40;;;;;;;1.50;1.45;;;2.70;98.60;;;;;;5074044;28;20260;-69
2022/12/10 05:31:15;;;;;;;1.92;1.83;;;2.70;98.70;;;;;;5074089;28;20180;-68
2022/12/10 05:33:41;;;;;;;0.40;0.40;;;2.60;98.80;;;;;;5074318;28;20183;-69
2022/12/10 05:36:07;;;;;;;0.95;0.95;;;2.60;98.90;;;;;;5073726;28;20178;-69
2022/12/10 05:38:33;;;;;;;0.85;0.70;;;2.60;98.90;;;;;;5074121;28;20682;-68
2022/12/10 05:41:06;;;;;;;0.70;0.70;;;2.60;98.80;;;;;;5073847;28;20608;-69
2022/12/10 05:43:32;;;;;;;1.45;1.45;;;2.60;98.70;;;;;;5074130;28;20164;-69
2022/12/10 05:46:04;;;;;;;1.15;1.15;;;2.60;98.80;;;;;;5073710;28;20176;-69
2022/12/10 05:48:30;;;;;;;0.70;0.70;;;2.70;98.70;;;;;;5073790;28;20243;-69
2022/12/10 05:50:56;;;;;;;1.15;1.02;;;2.70;98.80;;;;;;5073937;28;20205;-69
2022/12/10 05:53:22;;;;;;;1.25;1.20;;;2.80;98.70;;;;;;5073852;28;20211;-69
2022/12/10 05:55:48;;;;;;;0.50;0.50;;;2.70;98.40;;;;;;5073568;28;20532;-69
2022/12/10 05:58:14;;;;;;;1.17;1.17;;;2.80;98.40;;;;;;5073703;28;20200;-69
2022/12/10 06:00:41;;;;;;;1.67;0.75;;;2.70;98.30;;;;;;5073644;28;20453;-69
2022/12/10 06:03:07;;;;;;;1.00;1.00;;;2.70;98.40;;;;;;5073685;28;20199;-68
2022/12/10 06:05:40;;;;;;;0.65;0.65;;;2.70;98.40;;;;;;5073572;28;20653;-69
2022/12/10 06:08:07;;;;;;;0.90;0.55;;;2.50;98.30;;;;;;5073548;28;20263;-69
2022/12/10 06:10:35;;;;;;;3.08;2.88;;;2.50;98.60;;;;;;5073511;28;20166;-68
2022/12/10 06:13:02;;;;;;;0.40;0.40;;;2.70;98.70;;;;;;5073504;28;20180;-69
2022/12/10 06:15:28;;;;;;;0.40;0.40;;;2.70;98.40;;;;;;5073445;28;20517;-69
2022/12/10 06:17:55;;;;;;;0.50;0.50;;;2.70;98.10;;;;;;5073352;28;20197;-69
2022/12/10 06:20:21;;;;;;;0.90;0.90;;;2.50;98.20;;;;;;5073380;28;20162;-68
2022/12/10 06:22:46;;;;;;;0.40;0.40;;;2.40;98.50;;;;;;5073561;28;20537;-69
2022/12/10 06:25:13;;;;;;;0.60;0.60;;;2.40;98.50;;;;;;5073586;28;20404;-69
2022/12/10 06:27:38;;;;;;;1.13;1.02;;;2.30;98.60;;;;;;5073498;28;20180;-69
2022/12/10 06:30:05;;;;;;;1.13;1.13;;;2.40;99.00;;;;;;5073461;28;20672;-69
2022/12/10 06:32:30;;;;;;;1.05;1.05;;;2.50;99.10;;;;;;5074901;28;20399;-68
2022/12/10 06:34:56;;;;;;;7.30;1.30;;;2.60;98.70;;;;;;5077372;28;20660;-68
2022/12/10 06:37:21;;;;;;;2.53;1.50;;;2.60;98.40;;;;;;5077386;28;20208;-69
2022/12/10 06:39:49;;;;;;;0.87;0.87;;;2.50;98.20;;;;;;5077640;28;20169;-69
2022/12/10 06:42:15;;;;;;;0.88;0.88;;;2.40;98.30;;;;;;5076021;28;20209;-68
2022/12/10 06:44:40;;;;;;;0.50;0.50;;;2.40;98.60;;;;;;5077170;28;20268;-69
2022/12/10 06:47:06;;;;;;;0.40;0.40;;;2.50;98.70;;;;;;5077519;28;20661;-68
2022/12/10 06:49:32;;;;;;;0.87;0.87;;;2.50;98.50;;;;;;5077295;28;20246;-69
2022/12/10 06:51:57;;;;;;;0.60;0.57;;;2.50;98.50;;;;;;5077251;28;20173;-69
2022/12/10 06:54:23;;;;;;;0.50;0.50;;;2.50;98.60;;;;;;5077095;28;20179;-69
2022/12/10 06:56:48;;;;;;;0.40;0.40;;;2.60;99.90;;;;;;5077295;28;20548;-69
2022/12/10 06:59:14;;;;;;;2.93;2.63;;;2.50;98.70;;;;;;5077076;28;20176;-69
2022/12/10 07:01:40;;;;;;;3.07;0.70;;;2.50;98.70;;;;;;5077162;28;20210;-69
2022/12/10 07:04:05;;;;;;;0.57;0.57;;;2.50;98.60;;;;;;5077002;28;20170;-68
2022/12/10 07:06:32;;;;;;;0.40;0.40;;;2.50;98.70;;;;;;5077036;28;20172;-68
2022/12/10 07:08:58;;;;;;;0.60;0.60;;;2.50;98.50;;;;;;5076800;28;20199;-69
2022/12/10 07:11:24;;;;;;;0.80;0.80;;;2.40;98.20;;;;;;5076803;28;20189;-69
2022/12/10 07:13:51;;;;;;;0.73;0.73;;;2.30;98.20;;;;;;5076791;28;20176;-69
2022/12/10 07:16:25;;;;;;;0.40;0.40;;;2.30;98.30;;;;;;5076679;28;20220;-68
2022/12/10 07:18:52;;;;;;;1.00;1.00;;;2.10;98.20;;;;;;5076510;28;20187;-69
2022/12/10 07:21:25;;;;;;;0.40;0.40;;;2.10;98.20;;;;;;5076565;28;20206;-69
2022/12/10 07:23:53;;;;;;;0.30;0.30;;;2.10;98.30;;;;;;5076584;28;20164;-69
2022/12/10 07:26:19;;;;;;;0.57;0.57;;;2.10;98.30;;;;;;5076384;28;20570;-69
2022/12/10 07:28:45;;;;;;;0.30;0.30;;;2.20;98.40;;;;;;5076413;28;20204;-68
2022/12/10 07:31:11;;;;;;;0.90;0.90;;;2.20;98.30;;;;;;5076571;28;20761;-68
2022/12/10 07:33:37;;;;;;;0.52;0.52;;;2.30;98.30;;;;;;5076606;28;20180;-68
2022/12/10 07:36:11;;;;;;;0.40;0.40;;;2.40;98.00;;;;;;5076148;28;20326;-69
2022/12/10 07:38:37;;;;;;;1.58;1.48;;;2.20;97.80;;;;;;5076225;28;20201;-69
2022/12/10 07:41:04;;;;;;;0.38;0.38;;;2.20;97.90;;;;;;5076259;28;20662;-69
2022/12/10 07:43:32;;;;;;;0.40;0.40;;;2.30;97.90;;;;;;5075675;28;20186;-69
2022/12/10 07:46:07;;;;;;;0.40;0.40;;;2.30;97.70;;;;;;5076070;28;20177;-69
2022/12/10 07:48:34;;;;;;;0.50;0.50;;;2.40;97.70;;;;;;5076305;28;20205;-69
2022/12/10 07:50:59;;;;;;;0.80;0.75;;;2.40;97.50;;;;;;5076519;28;20538;-69
2022/12/10 07:53:25;;;;;;;0.50;0.50;;;2.40;97.50;;;;;;5076106;28;20258;-69
2022/12/10 07:55:51;;;;;;;0.97;0.97;;;2.30;97.50;;;;;;5075939;28;20193;-69
2022/12/10 07:58:16;;;;;;;1.50;1.07;;;2.20;97.40;;;;;;5075817;28;20203;-68
2022/12/10 08:00:42;;;;;;;0.40;0.40;;;2.20;97.70;;;;;;5076001;28;20195;-68
2022/12/10 08:03:08;;;;;;;0.47;0.47;;;2.30;97.90;;;;;;5075840;28;20531;-68
2022/12/10 08:05:33;;;;;;;1.97;1.40;;;2.40;97.80;;;;;;5075700;28;20177;-69
2022/12/10 08:07:59;;;;;;;0.70;0.70;;;2.50;97.50;;;;;;5075958;28;20186;-69
2022/12/10 08:10:24;;;;;;;0.40;0.40;;;2.60;97.30;;;;;;5076039;28;20171;-69
2022/12/10 08:12:50;;;;;;;0.60;0.60;;;2.60;97.30;;;;;;5075830;28;20214;-69
2022/12/10 08:15:16;;;;;;;0.47;0.37;;;2.70;97.30;;;;;;5075422;28;20537;-68
2022/12/10 08:17:41;;;;;;;0.43;0.43;;;2.60;97.10;;;;;;5075514;28;20281;-68
2022/12/10 08:20:08;;;;;;;0.40;0.40;;;2.50;97.10;;;;;;5075561;28;20179;-69
2022/12/10 08:22:35;;;;;;;0.50;0.50;;;2.60;97.10;;;;;;5075374;28;20197;-68
2022/12/10 08:25:01;;;;;;;0.50;0.50;;;2.60;97.10;;;;;;5075322;28;20175;-68
2022/12/10 08:27:26;;;;;;;0.30;0.30;;;2.60;97.10;;;;;;5075405;28;20526;-68
2022/12/10 08:29:52;;;;;;;0.73;0.73;;;2.60;97.10;;;;;;5075248;28;20486;-69
2022/12/10 08:32:18;;;;;;;1.73;1.13;;;2.60;97.40;;;;;;5075163;28;20238;-69
2022/12/10 08:34:44;;;;;;;0.40;0.40;;;2.70;97.20;;;;;;5075127;28;20188;-69
2022/12/10 08:37:09;;;;;;;1.08;1.08;;;2.70;97.20;;;;;;5075066;28;20211;-68
2022/12/10 08:39:35;;;;;;;0.47;0.47;;;2.70;97.20;;;;;;5075150;28;20255;-69
2022/12/10 08:42:01;;;;;;;2.10;2.00;;;2.60;97.10;;;;;;5075264;28;20197;-68
2022/12/10 08:44:26;;;;;;;1.00;1.00;;;2.70;97.20;;;;;;5075055;28;20180;-69
2022/12/10 08:46:52;;;;;;;0.53;0.53;;;2.90;99.90;;;;;;5075083;28;20164;-69
2022/12/10 08:49:17;;;;;;;2.00;1.90;;;2.80;96.60;;;;;;5074927;28;20170;-68
2022/12/10 08:51:43;;;;;;;0.70;0.70;;;2.90;96.40;;;;;;5075194;28;20795;-69
2022/12/10 08:54:09;;;;;;;3.43;3.23;;;2.90;96.30;;;;;;5074851;28;20231;-69
2022/12/10 08:56:34;;;;;;;0.40;0.40;;;3.00;96.60;;;;;;5074342;28;20176;-68
2022/12/10 08:59:00;;;;;;;0.60;0.60;;;3.10;96.60;;;;;;5074709;28;20196;-69
2022/12/10 09:01:26;;;;;;;0.30;0.30;;;3.10;96.30;;;;;;5074668;28;20204;-69
2022/12/10 09:03:52;;;;;;;1.13;1.13;;;3.20;96.30;;;;;;5074592;28;20166;-69
2022/12/10 09:06:23;;;;;;;0.67;0.67;;;3.30;96.40;;;;;;5074498;28;20236;-69
2022/12/10 09:08:50;;;;;;;0.50;0.50;;;3.50;96.20;;;;;;5074633;28;20419;-69
2022/12/10 09:11:22;;;;;;;0.82;0.82;;;3.50;95.80;;;;;;5074672;28;20254;-69
2022/12/10 09:13:48;;;;;;;0.70;0.70;;;3.70;95.90;;;;;;5074612;28;20291;-69
2022/12/10 09:16:14;;;;;;;0.70;0.70;;;3.80;95.80;;;;;;5074333;28;20331;-69
2022/12/10 09:18:39;;;;;;;10.10;1.63;;;3.90;95.50;;;;;;5074237;28;20269;-69
2022/12/10 09:21:12;;;;;;;0.97;0.93;;;3.90;95.20;;;;;;5074488;28;20810;-69
2022/12/10 09:23:38;;;;;;;0.50;0.50;;;3.90;95.10;;;;;;5074466;28;20832;-69
2022/12/10 09:26:08;;;;;;;0.68;0.68;;;3.80;95.10;;;;;;5074252;28;20536;-68
2022/12/10 09:28:35;;;;;;;1.10;1.08;;;3.90;95.20;;;;;;5074144;28;20610;-69
2022/12/10 09:31:02;;;;;;;0.40;0.40;;;3.80;95.00;;;;;;5074121;28;20264;-69
2022/12/10 09:33:28;;;;;;;0.98;0.98;;;3.80;95.20;;;;;;5074139;28;20181;-69
2022/12/10 09:35:54;;;;;;;0.50;0.50;;;3.80;95.30;;;;;;5073917;28;20181;-69
2022/12/10 09:38:20;;;;;;;0.50;0.50;;;3.70;94.90;;;;;;5073526;28;20205;-68
2022/12/10 09:40:58;;;;;;;4.67;1.00;;;3.60;94.90;;;;;;5073958;28;20284;-70
2022/12/10 09:43:46;;;;;;;0.30;0.30;;;3.60;94.80;;;;;;5074399;28;20536;-69
2022/12/10 09:46:47;;;;;;;1.52;1.52;;;3.50;94.90;;;;;;5073803;28;20251;-69
2022/12/10 09:49:46;;;;;;;0.40;0.40;;;3.60;95.20;;;;;;5073257;28;20178;-68
2022/12/10 09:52:19;;;;;;;0.50;0.50;;;3.50;94.40;;;;;;5073834;28;20539;-69
2022/12/10 09:54:56;;;;;;;0.80;0.80;;;3.50;94.50;;;;;;5073777;28;20208;-69
2022/12/10 09:57:27;;;;;;;0.63;0.63;;;3.50;94.60;;;;;;5073913;28;20193;-68
2022/12/10 09:59:55;;;;;;;0.35;0.35;;;3.20;94.10;;;;;;5073731;28;20173;-69
2022/12/10 10:02:29;;;;;;;0.40;0.40;;;3.20;94.70;;;;;;5073502;28;20276;-69
2022/12/10 10:05:07;;;;;;;0.30;0.30;;;3.20;94.80;;;;;;5073591;28;20173;-69
2022/12/10 10:07:36;;;;;;;1.63;1.50;;;3.20;94.60;;;;;;5072332;28;20193;-69
2022/12/10 10:10:22;;;;;;;1.33;1.23;;;3.20;94.70;;;;;;5073541;28;20172;-69
2022/12/10 10:12:49;;;;;;;1.67;0.60;;;3.20;94.30;;;;;;5073944;28;20173;-69
2022/12/10 10:15:20;;;;;;;0.38;0.38;;;3.00;94.20;;;;;;5073434;28;20176;-69
2022/12/10 10:17:46;;;;;;;0.50;0.50;;;3.00;94.70;;;;;;5073540;28;20193;-69
2022/12/10 10:20:13;;;;;;;0.88;0.82;;;3.10;95.10;;;;;;5073403;28;20192;-69
2022/12/10 10:22:40;;;;;;;0.30;0.30;;;3.00;94.60;;;;;;5073310;28;20200;-69
2022/12/10 10:25:17;;;;;;;0.70;0.70;;;2.90;94.50;;;;;;5073238;28;20166;-69
2022/12/10 10:27:43;;;;;;;0.30;0.30;;;2.80;94.50;;;;;;5073454;28;20193;-69
2022/12/10 10:30:20;;;;;;;1.07;0.97;;;2.90;94.70;;;;;;5073316;28;20194;-68
2022/12/10 10:32:55;;;;;;;0.88;0.88;;;2.80;94.80;;;;;;5073504;28;20424;-69
2022/12/10 10:35:29;;;;;;;1.13;0.57;;;2.80;94.80;;;;;;5073147;28;20173;-69
2022/12/10 10:38:06;;;;;;;0.60;0.60;;;2.90;94.80;;;;;;5073160;28;20556;-69
2022/12/10 10:40:40;;;;;;;0.98;0.73;;;2.80;95.00;;;;;;5073479;28;20172;-69
2022/12/10 10:43:13;;;;;;;0.40;0.40;;;2.90;95.10;;;;;;5073727;28;20180;-69
2022/12/10 10:45:47;;;;;;;0.30;0.30;;;3.00;95.10;;;;;;5072260;28;20635;-69
2022/12/10 10:48:19;;;;;;;0.30;0.30;;;3.00;95.00;;;;;;5073117;28;20223;-69
2022/12/10 10:51:07;;;;;;;0.30;0.30;;;3.10;94.80;;;;;;5073234;28;20176;-69
2022/12/10 10:53:43;;;;;;;0.57;0.57;;;3.10;94.60;;;;;;5073411;28;20169;-69
2022/12/10 10:56:25;;;;;;;0.90;0.90;;;3.20;94.60;;;;;;5073083;28;20277;-69
2022/12/10 10:59:19;;;;;;;0.45;0.45;;;3.20;94.50;;;;;;5073026;28;20553;-68
2022/12/10 11:01:59;;;;;;;0.47;0.47;;;3.30;94.60;;;;;;5073193;28;20549;-69
2022/12/10 11:04:36;;;;;;;0.70;0.70;;;3.30;94.70;;;;;;5073317;28;20165;-68
2022/12/10 11:07:04;;;;;;;0.63;0.63;;;3.30;99.90;;;;;;5071753;28;20173;-69
2022/12/10 11:09:33;;;;;;;0.50;0.50;;;3.30;94.90;;;;;;5072991;28;20162;-68
2022/12/10 11:12:02;;;;;;;1.13;1.13;;;3.30;94.90;;;;;;5073095;28;20176;-68
2022/12/10 11:14:37;;;;;;;0.88;0.88;;;3.30;95.00;;;;;;5072931;28;20672;-68
2022/12/10 11:17:18;;;;;;;0.70;0.70;;;3.30;94.50;;;;;;5073092;28;20193;-69
2022/12/10 11:20:16;;;;;;;0.73;0.65;;;3.30;94.20;;;;;;5076338;28;20601;-68
2022/12/10 11:22:57;;;;;;;0.40;0.40;;;3.30;94.00;;;;;;5075717;28;20217;-68
2022/12/10 11:25:47;;;;;;;3.38;2.72;;;3.30;94.00;;;;;;5076454;28;20169;-69
2022/12/10 11:28:33;;;;;;;1.75;1.75;;;3.30;94.30;;;;;;5076541;28;20199;-69
2022/12/10 11:31:20;;;;;;;0.30;0.30;;;3.50;94.50;;;;;;5076016;28;20183;-68
2022/12/10 11:34:09;;;;;;;1.17;1.08;;;3.60;94.60;;;;;;5076642;28;20166;-69
2022/12/10 11:37:18;;;;;;;0.82;0.82;;;3.80;94.50;;;;;;5075232;28;20277;-68
2022/12/10 11:40:21;;;;;;;0.30;0.30;;;3.80;93.50;;;;;;5076279;28;20157;-69
2022/12/10 11:43:07;;;;;;;0.40;0.40;;;3.70;93.20;;;;;;5076415;28;20561;-69
2022/12/10 11:46:10;;;;;;;1.05;1.05;;;3.70;93.30;;;;;;5076089;28;20161;-69
2022/12/10 11:48:41;;;;;;;0.40;0.40;;;3.60;93.50;;;;;;5076070;28;20199;-69
2022/12/10 11:51:30;;;;;;;0.30;0.30;;;3.40;93.50;;;;;;5076177;28;20170;-69
2022/12/10 11:54:07;;;;;;;0.90;0.90;;;3.40;93.70;;;;;;5076146;28;20197;-69
2022/12/10 11:56:50;;;;;;;0.30;0.30;;;3.30;94.10;;;;;;5076262;28;20273;-69
2022/12/10 11:59:27;;;;;;;1.30;1.30;;;3.30;94.00;;;;;;5076009;28;20215;-69
2022/12/10 12:01:53;;;;;;;0.65;0.65;;;3.30;93.70;;;;;;5076096;28;20594;-69
2022/12/10 12:04:29;;;;;;;0.90;0.70;;;3.30;93.70;;;;;;5075918;28;20258;-68
2022/12/10 12:07:16;;;;;;;0.40;0.40;;;3.20;99.20;;;;;;5076186;28;20169;-69
2022/12/10 12:10:14;;;;;;;0.57;0.57;;;3.30;94.10;;;;;;5075761;28;20195;-69
2022/12/10 12:12:52;;;;;;;1.40;0.75;;;3.30;93.70;;;;;;5075805;28;20182;-69
2022/12/10 12:15:43;;;;;;;0.65;0.65;;;3.30;93.60;;;;;;5075464;28;20230;-69
2022/12/10 12:18:30;;;;;;;0.60;0.55;;;3.30;93.70;;;;;;5075695;28;20286;-69
2022/12/10 12:21:01;;;;;;;0.80;0.80;;;3.40;93.60;;;;;;5076195;28;20221;-69
2022/12/10 12:23:44;;;;;;;0.60;0.60;;;3.30;93.80;;;;;;5075733;28;20169;-69
2022/12/10 12:26:16;;;;;;;0.95;0.95;;;3.30;94.10;;;;;;5075390;28;20173;-69
2022/12/10 12:28:50;;;;;;;0.40;0.40;;;3.30;93.70;;;;;;5075432;28;20288;-69
2022/12/10 12:31:25;;;;;;;0.40;0.40;;;3.20;93.10;;;;;;5074558;28;20710;-68
2022/12/10 12:34:01;;;;;;;0.50;0.50;;;3.20;93.00;;;;;;5075542;28;20183;-68
2022/12/10 12:36:34;;;;;;;1.20;0.75;;;3.30;93.50;;;;;;5075239;28;20642;-69
2022/12/10 12:39:24;;;;;;;0.30;0.30;;;3.40;93.50;;;;;;5075506;28;20193;-69
2022/12/10 12:42:03;;;;;;;2.25;1.33;;;3.50;93.80;;;;;;5075039;28;20197;-69
2022/12/10 12:44:35;;;;;;;0.77;0.77;;;3.60;93.50;;;;;;5075462;28;20166;-69
2022/12/10 12:47:19;;;;;;;0.50;0.50;;;3.50;98.20;;;;;;5075044;28;20174;-69
2022/12/10 12:49:45;;;;;;;0.40;0.40;;;3.60;93.00;;;;;;5074982;28;20242;-69
2022/12/10 12:52:33;;;;;;;3.15;1.80;;;3.60;92.60;;;;;;5075067;28;20188;-69
2022/12/10 12:55:09;;;;;;;1.02;1.00;;;3.60;92.70;;;;;;5074939;28;20231;-69
2022/12/10 12:57:49;;;;;;;0.60;0.60;;;3.60;92.70;;;;;;5074816;28;20280;-68
2022/12/10 13:00:21;;;;;;;0.40;0.40;;;3.50;92.80;;;;;;5074920;28;20211;-69
2022/12/10 13:02:58;;;;;;;0.30;0.30;;;3.50;93.10;;;;;;5074594;28;20213;-68
2022/12/10 13:05:28;;;;;;;2.03;0.65;;;3.60;93.00;;;;;;5074456;28;20200;-69
2022/12/10 13:08:19;;;;;;;0.40;0.40;;;3.60;93.20;;;;;;5074546;28;20574;-68
2022/12/10 13:11:04;;;;;;;0.32;0.32;;;3.40;92.80;;;;;;5074698;28;20215;-69
2022/12/10 13:13:31;;;;;;;2.80;1.15;;;3.40;92.70;;;;;;5074714;28;20217;-69
2022/12/10 13:16:44;;;;;;;0.30;0.30;;;3.30;92.80;;;;;;5074287;28;20176;-68
2022/12/10 13:19:30;;;;;;;0.40;0.40;;;3.10;93.00;;;;;;5074417;28;20214;-68
2022/12/10 13:22:37;;;;;;;0.50;0.50;;;3.00;93.30;;;;;;5074348;28;20227;-69
2022/12/10 13:25:17;;;;;;;0.73;0.73;;;2.90;93.90;;;;;;5071954;28;20804;-69
2022/12/10 13:27:57;;;;;;;0.80;0.80;;;3.10;94.30;;;;;;5072243;28;20225;-68